KMER/MER METAR and TAF weather

Enter ICAO airport designator
Station Type Date Time Source
KMER METAR 2021/01/17 19:45 UTC NOAA

KMER 171945Z 00000KT 2SM BR CLR 18/14 A3014


Station Type Date Time Source
KMER Decoded METAR 2021/01/17 19:45 UTC NOAA

Merced / Castle Air Force Base, CA, United States (KMER) 37-22N 120-34W 60M
Jan 17, 2021 - 02:45 PM EST / 2021.01.17 1945 UTC
Wind: Calm:0
Visibility: 2 mile(s):0
Sky conditions: clear
Weather: mist
Temperature: 64 F (18 C)
Dew Point: 57 F (14 C)
Relative Humidity: 77%
Pressure (altimeter): 30.14 in. Hg (1020 hPa)
ob: KMER 171945Z 00000KT 2SM BR CLR 18/14 A3014
cycle: 20

Station Type Date Time Source
KMER TAF 2021/01/17 18:27 UTC NOAA

TAF KMER 171720Z 1718/1818 VRB02KT 1SM BR SKC
FM171900 30002KT 2SM HZ FEW250
FM172000 30003KT 4SM HZ SKC
FM180700 00000KT 2SM HZ SKC

Example: see airport list